Time;durP1;ratioP1;P1;durP2;ratioP2;P2;SDS_P1;SDS_P2;PMS_P1;PMS_P2;Temp;Humidity;BMP_temperature;BMP_pressure;BME280_temperature;BME280_humidity;BME280_pressure;Samples;Min_cycle;Max_cycle;Signal;HPM_P1;HPM_P2
2020/02/11 00:01:17;;;;;;;1.40;1.10;;;;;;;18.71;39.90;99173.48;;;;-50
2020/02/11 00:10:43;;;;;;;1.42;1.17;;;;;;;18.68;39.89;99191.46;;;;-49
2020/02/11 00:13:43;;;;;;;1.18;1.09;;;;;;;18.66;39.93;99202.61;;;;-49
2020/02/11 00:16:42;;;;;;;1.26;1.15;;;;;;;18.64;39.93;99207.00;;;;-50
2020/02/11 00:19:43;;;;;;;1.51;1.08;;;;;;;18.64;39.95;99199.72;;;;-49
2020/02/11 00:22:43;;;;;;;1.35;1.07;;;;;;;18.63;39.93;99211.25;;;;-50
2020/02/11 00:25:43;;;;;;;1.10;1.00;;;;;;;18.62;39.95;99226.67;;;;-50
2020/02/11 00:28:43;;;;;;;1.27;1.17;;;;;;;18.61;39.96;99230.50;;;;-49
2020/02/11 00:31:43;;;;;;;0.98;0.93;;;;;;;18.60;39.94;99247.63;;;;-49
2020/02/11 00:34:43;;;;;;;1.27;1.09;;;;;;;18.58;39.94;99242.45;;;;-50
2020/02/11 00:37:42;;;;;;;1.41;1.12;;;;;;;18.58;39.96;99269.20;;;;-50
2020/02/11 00:40:43;;;;;;;1.12;1.02;;;;;;;18.57;39.98;99272.28;;;;-49
2020/02/11 00:43:43;;;;;;;1.31;1.17;;;;;;;18.56;39.96;99285.36;;;;-50
2020/02/11 00:46:43;;;;;;;1.03;1.00;;;;;;;18.55;39.97;99282.32;;;;-50
2020/02/11 00:49:43;;;;;;;1.45;1.09;;;;;;;18.54;39.97;99315.16;;;;-50
2020/02/11 00:52:43;;;;;;;1.18;1.08;;;;;;;18.53;39.96;99339.20;;;;-49
2020/02/11 00:55:57;;;;;;;1.10;1.01;;;;;;;18.52;39.94;99314.16;;;;-50
2020/02/11 00:58:43;;;;;;;1.27;1.09;;;;;;;18.51;39.95;99338.14;;;;-50
2020/02/11 01:01:43;;;;;;;1.14;1.04;;;;;;;18.50;39.97;99354.56;;;;-51
2020/02/11 01:05:42;;;;;;;0.94;0.91;;;;;;;18.48;39.93;99366.47;;;;-49
2020/02/11 01:08:43;;;;;;;2.53;1.10;;;;;;;18.48;39.94;99376.83;;;;-49
2020/02/11 01:12:43;;;;;;;0.89;0.89;;;;;;;18.47;39.91;99377.30;;;;-50
2020/02/11 01:15:43;;;;;;;1.08;0.96;;;;;;;18.45;39.91;99389.01;;;;-53
2020/02/11 01:18:42;;;;;;;1.07;0.90;;;;;;;18.45;39.91;99387.77;;;;-54
2020/02/11 01:21:43;;;;;;;1.16;1.06;;;;;;;18.43;39.92;99397.23;;;;-54
2020/02/11 01:24:43;;;;;;;1.07;1.00;;;;;;;18.42;39.95;99394.27;;;;-54
2020/02/11 01:27:45;;;;;;;0.91;0.91;;;;;;;18.42;39.92;99398.61;;;;-54
2020/02/11 01:30:43;;;;;;;1.14;1.04;;;;;;;18.40;39.93;99404.33;;;;-54
2020/02/11 01:34:43;;;;;;;1.24;1.01;;;;;;;18.40;39.89;99401.89;;;;-54
2020/02/11 01:38:43;;;;;;;1.17;1.00;;;;;;;18.39;39.86;99385.84;;;;-54
2020/02/11 01:41:42;;;;;;;1.01;0.91;;;;;;;18.37;39.92;99390.52;;;;-54
2020/02/11 01:44:43;;;;;;;1.10;1.00;;;;;;;18.37;39.92;99399.98;;;;-54
2020/02/11 01:47:43;;;;;;;0.91;0.90;;;;;;;18.36;39.88;99394.11;;;;-54
2020/02/11 01:51:43;;;;;;;1.05;0.95;;;;;;;18.36;39.87;99382.04;;;;-54
2020/02/11 01:54:42;;;;;;;1.07;0.97;;;;;;;18.34;39.87;99415.77;;;;-54
2020/02/11 01:57:42;;;;;;;1.15;1.00;;;;;;;18.33;39.86;99408.28;;;;-54
2020/02/11 02:00:42;;;;;;;1.13;1.01;;;;;;;18.32;39.84;99417.21;;;;-54
2020/02/11 02:05:42;;;;;;;1.05;0.88;;;;;;;18.31;39.81;99445.22;;;;-54
2020/02/11 02:08:42;;;;;;;1.25;0.90;;;;;;;18.30;39.83;99439.67;;;;-54
2020/02/11 02:11:42;;;;;;;1.24;0.98;;;;;;;18.29;39.79;99433.16;;;;-54
2020/02/11 02:14:42;;;;;;;0.99;0.95;;;;;;;18.28;39.83;99440.75;;;;-54
2020/02/11 02:17:45;;;;;;;1.00;1.00;;;;;;;18.27;39.80;99426.23;;;;-54
2020/02/11 02:20:56;;;;;;;0.98;0.88;;;;;;;18.27;39.81;99452.14;;;;-54
2020/02/11 02:23:42;;;;;;;1.10;1.00;;;;;;;18.26;39.82;99457.59;;;;-54
2020/02/11 02:26:42;;;;;;;0.91;0.89;;;;;;;18.25;39.82;99461.44;;;;-54
2020/02/11 02:29:42;;;;;;;1.08;1.00;;;;;;;18.24;39.82;99486.41;;;;-54
2020/02/11 02:37:00;;;;;;;1.03;0.99;;;;;;;18.23;39.81;99506.69;;;;-54
2020/02/11 02:39:55;;;;;;;1.14;1.00;;;;;;;18.21;39.82;99522.42;;;;-54
2020/02/11 02:42:58;;;;;;;1.11;1.01;;;;;;;18.21;39.85;99511.06;;;;-54
2020/02/11 02:45:54;;;;;;;0.99;0.97;;;;;;;18.20;39.83;99517.28;;;;-54
2020/02/11 02:49:56;;;;;;;0.94;0.86;;;;;;;18.18;39.80;99528.44;;;;-54
2020/02/11 02:52:50;;;;;;;0.81;0.81;;;;;;;18.18;39.82;99534.52;;;;-54
2020/02/11 02:55:43;;;;;;;0.84;0.80;;;;;;;18.16;39.80;99532.55;;;;-54
2020/02/11 02:58:42;;;;;;;0.95;0.77;;;;;;;18.16;39.78;99539.47;;;;-54
2020/02/11 03:01:42;;;;;;;1.41;1.01;;;;;;;18.15;39.79;99554.06;;;;-54
2020/02/11 03:06:42;;;;;;;1.00;0.95;;;;;;;18.13;39.72;99551.66;;;;-54
2020/02/11 03:09:42;;;;;;;1.29;0.93;;;;;;;18.12;39.75;99560.48;;;;-54
2020/02/11 03:13:42;;;;;;;0.94;0.93;;;;;;;18.11;39.75;99560.51;;;;-54
2020/02/11 03:16:42;;;;;;;0.95;0.90;;;;;;;18.10;39.74;99554.89;;;;-54
2020/02/11 03:19:42;;;;;;;1.08;0.98;;;;;;;18.10;39.72;99568.16;;;;-54
2020/02/11 03:22:42;;;;;;;0.92;0.87;;;;;;;18.09;39.73;99570.40;;;;-54
2020/02/11 03:25:42;;;;;;;0.93;0.90;;;;;;;18.09;39.74;99570.56;;;;-54
2020/02/11 03:28:42;;;;;;;1.09;0.99;;;;;;;18.08;39.76;99595.48;;;;-54
2020/02/11 03:31:43;;;;;;;1.07;0.91;;;;;;;18.07;39.72;99582.86;;;;-54
2020/02/11 03:34:42;;;;;;;1.14;1.01;;;;;;;18.06;39.73;99598.36;;;;-54
2020/02/11 03:37:42;;;;;;;0.98;0.95;;;;;;;18.06;39.70;99601.53;;;;-53
2020/02/11 03:40:43;;;;;;;1.06;0.97;;;;;;;18.06;39.70;99623.75;;;;-54
2020/02/11 03:43:42;;;;;;;1.31;1.07;;;;;;;18.05;39.70;99615.53;;;;-54
2020/02/11 03:46:42;;;;;;;1.11;1.00;;;;;;;18.04;39.69;99613.32;;;;-54
2020/02/11 03:49:43;;;;;;;0.90;0.90;;;;;;;18.04;39.66;99611.72;;;;-54
2020/02/11 03:52:42;;;;;;;1.69;1.10;;;;;;;18.03;39.70;99615.85;;;;-54
2020/02/11 03:55:42;;;;;;;1.29;1.07;;;;;;;18.03;39.69;99624.41;;;;-54
2020/02/11 03:58:42;;;;;;;1.55;0.90;;;;;;;18.03;39.71;99641.85;;;;-54
2020/02/11 04:01:43;;;;;;;1.56;1.19;;;;;;;18.03;39.66;99655.61;;;;-54
2020/02/11 04:05:42;;;;;;;1.19;1.03;;;;;;;18.03;39.60;99666.14;;;;-54
2020/02/11 04:08:42;;;;;;;1.50;0.91;;;;;;;18.04;39.68;99668.84;;;;-54
2020/02/11 04:11:43;;;;;;;1.03;0.96;;;;;;;18.04;39.62;99671.45;;;;-54
2020/02/11 04:14:42;;;;;;;1.10;1.00;;;;;;;18.05;39.62;99673.17;;;;-50
2020/02/11 04:17:42;;;;;;;1.06;0.97;;;;;;;18.07;39.65;99676.35;;;;-49
2020/02/11 04:20:42;;;;;;;1.39;0.90;;;;;;;18.10;39.70;99681.94;;;;-49
2020/02/11 04:23:42;;;;;;;0.98;0.91;;;;;;;18.13;39.67;99691.52;;;;-49
2020/02/11 04:26:42;;;;;;;1.42;1.04;;;;;;;18.15;39.64;99690.98;;;;-50
2020/02/11 04:29:42;;;;;;;1.15;1.00;;;;;;;18.18;39.68;99692.20;;;;-50
2020/02/11 04:32:42;;;;;;;1.59;1.23;;;;;;;18.22;39.61;99698.00;;;;-50
2020/02/11 04:35:43;;;;;;;1.11;1.00;;;;;;;18.27;39.63;99714.47;;;;-49
2020/02/11 04:38:42;;;;;;;1.73;1.06;;;;;;;18.30;39.59;99715.05;;;;-50
2020/02/11 04:41:43;;;;;;;1.04;0.94;;;;;;;18.35;39.60;99706.94;;;;-50
2020/02/11 04:44:42;;;;;;;1.63;1.17;;;;;;;18.38;39.58;99702.37;;;;-50
2020/02/11 04:47:42;;;;;;;1.07;0.93;;;;;;;18.44;39.68;99703.52;;;;-50
2020/02/11 04:50:42;;;;;;;1.83;1.00;;;;;;;18.46;39.63;99702.16;;;;-50
2020/02/11 04:53:42;;;;;;;1.20;1.10;;;;;;;18.49;39.68;99703.20;;;;-49
2020/02/11 04:56:42;;;;;;;1.15;1.00;;;;;;;18.52;39.64;99703.88;;;;-49
2020/02/11 04:59:42;;;;;;;1.29;1.00;;;;;;;18.54;39.66;99695.16;;;;-50
2020/02/11 05:02:42;;;;;;;1.40;1.01;;;;;;;18.56;39.67;99696.17;;;;-49
2020/02/11 05:05:42;;;;;;;0.91;0.91;;;;;;;18.60;39.64;99703.23;;;;-50
2020/02/11 05:08:42;;;;;;;1.33;1.11;;;;;;;18.61;39.66;99684.48;;;;-49
2020/02/11 05:11:43;;;;;;;1.51;1.11;;;;;;;18.63;39.67;99677.86;;;;-50
2020/02/11 05:14:42;;;;;;;1.95;1.10;;;;;;;18.63;39.63;99675.69;;;;-50
2020/02/11 05:17:42;;;;;;;1.15;1.03;;;;;;;18.63;39.54;99676.86;;;;-49
2020/02/11 05:20:42;;;;;;;1.02;0.95;;;;;;;18.65;39.63;99688.63;;;;-49
2020/02/11 05:23:42;;;;;;;1.17;1.00;;;;;;;18.65;39.59;99689.47;;;;-49
2020/02/11 05:26:42;;;;;;;1.15;1.00;;;;;;;18.67;39.57;99699.64;;;;-49
2020/02/11 05:29:42;;;;;;;1.53;1.10;;;;;;;18.66;39.57;99701.88;;;;-54
2020/02/11 05:32:42;;;;;;;1.27;1.05;;;;;;;18.66;39.57;99690.34;;;;-54
2020/02/11 05:35:42;;;;;;;1.04;0.93;;;;;;;18.66;39.57;99699.03;;;;-53
2020/02/11 05:38:42;;;;;;;1.23;1.00;;;;;;;18.66;39.56;99700.88;;;;-54
2020/02/11 05:41:42;;;;;;;1.09;1.00;;;;;;;18.67;39.55;99707.00;;;;-54
2020/02/11 05:44:42;;;;;;;0.89;0.86;;;;;;;18.66;39.51;99717.27;;;;-53
2020/02/11 05:47:42;;;;;;;1.17;0.97;;;;;;;18.66;39.53;99717.94;;;;-53
2020/02/11 05:50:42;;;;;;;0.92;0.90;;;;;;;18.66;39.51;99718.94;;;;-54
2020/02/11 05:53:42;;;;;;;1.40;0.99;;;;;;;18.65;39.54;99711.70;;;;-54
2020/02/11 05:56:43;;;;;;;1.13;1.01;;;;;;;18.65;39.48;99716.96;;;;-54
2020/02/11 05:59:42;;;;;;;1.05;0.91;;;;;;;18.64;39.52;99717.09;;;;-53
2020/02/11 06:02:42;;;;;;;1.34;0.97;;;;;;;18.64;39.48;99716.69;;;;-54
2020/02/11 06:05:42;;;;;;;1.20;1.07;;;;;;;18.64;39.49;99717.59;;;;-54
2020/02/11 06:08:42;;;;;;;1.03;0.93;;;;;;;18.63;39.45;99713.64;;;;-54
2020/02/11 06:11:42;;;;;;;1.10;1.00;;;;;;;18.63;39.49;99727.69;;;;-54
2020/02/11 06:14:42;;;;;;;0.89;0.83;;;;;;;18.62;39.42;99729.66;;;;-54
2020/02/11 06:17:42;;;;;;;0.97;0.90;;;;;;;18.61;39.46;99719.77;;;;-54
2020/02/11 06:20:43;;;;;;;1.12;1.01;;;;;;;18.61;39.52;99725.78;;;;-53
2020/02/11 06:23:42;;;;;;;1.15;0.99;;;;;;;18.61;39.42;99731.36;;;;-54
2020/02/11 06:26:42;;;;;;;1.13;1.00;;;;;;;18.61;39.44;99750.97;;;;-54
2020/02/11 06:29:42;;;;;;;2.25;1.09;;;;;;;18.61;39.44;99746.41;;;;-54
2020/02/11 06:32:42;;;;;;;1.33;1.03;;;;;;;18.61;39.39;99755.31;;;;-54
2020/02/11 06:35:42;;;;;;;1.22;1.03;;;;;;;18.60;39.44;99746.48;;;;-54
2020/02/11 06:38:43;;;;;;;1.07;1.00;;;;;;;18.59;39.43;99749.95;;;;-54
2020/02/11 06:41:42;;;;;;;1.10;0.90;;;;;;;18.60;39.40;99756.52;;;;-54
2020/02/11 06:44:42;;;;;;;1.56;1.02;;;;;;;18.60;39.43;99758.63;;;;-54
2020/02/11 06:47:43;;;;;;;1.31;1.00;;;;;;;18.60;39.41;99766.05;;;;-54
2020/02/11 06:50:42;;;;;;;1.23;1.00;;;;;;;18.60;39.38;99763.88;;;;-53
2020/02/11 06:53:42;;;;;;;1.09;0.99;;;;;;;18.60;39.39;99773.23;;;;-54
2020/02/11 06:56:42;;;;;;;1.22;1.03;;;;;;;18.60;39.36;99777.92;;;;-54
2020/02/11 06:59:42;;;;;;;1.16;1.06;;;;;;;18.61;39.37;99780.86;;;;-53
2020/02/11 07:02:42;;;;;;;1.23;1.00;;;;;;;18.62;39.38;99794.45;;;;-54
2020/02/11 07:05:42;;;;;;;1.37;1.11;;;;;;;18.61;39.37;99792.84;;;;-53
2020/02/11 07:08:42;;;;;;;1.27;1.17;;;;;;;18.62;39.35;99801.30;;;;-54
2020/02/11 07:11:42;;;;;;;1.12;1.02;;;;;;;18.62;39.38;99808.53;;;;-54
2020/02/11 07:14:42;;;;;;;1.18;1.01;;;;;;;18.62;39.38;99813.71;;;;-54
2020/02/11 07:17:42;;;;;;;1.52;1.05;;;;;;;18.62;39.34;99819.36;;;;-53
2020/02/11 07:20:42;;;;;;;1.05;0.95;;;;;;;18.62;39.33;99817.96;;;;-54
2020/02/11 07:23:42;;;;;;;1.69;1.10;;;;;;;18.61;39.31;99827.63;;;;-54
2020/02/11 07:26:42;;;;;;;1.20;1.10;;;;;;;18.61;39.34;99821.44;;;;-54
2020/02/11 07:29:42;;;;;;;1.35;0.98;;;;;;;18.61;39.36;99826.28;;;;-54
2020/02/11 07:32:42;;;;;;;1.33;1.21;;;;;;;18.62;39.34;99826.39;;;;-54
2020/02/11 07:35:42;;;;;;;1.09;0.99;;;;;;;18.62;39.36;99828.39;;;;-53
2020/02/11 07:38:42;;;;;;;1.12;1.02;;;;;;;18.62;39.35;99832.34;;;;-54
2020/02/11 07:41:42;;;;;;;1.17;0.96;;;;;;;18.62;39.32;99840.64;;;;-54
2020/02/11 07:44:42;;;;;;;1.27;1.07;;;;;;;18.62;39.32;99845.66;;;;-53
2020/02/11 07:47:42;;;;;;;1.23;1.06;;;;;;;18.62;39.33;99865.79;;;;-54
2020/02/11 07:50:42;;;;;;;1.51;1.10;;;;;;;18.62;39.29;99870.30;;;;-54
2020/02/11 07:53:42;;;;;;;0.97;0.97;;;;;;;18.62;39.32;99871.48;;;;-49
2020/02/11 07:56:42;;;;;;;1.09;1.00;;;;;;;18.62;39.29;99880.51;;;;-49
2020/02/11 07:59:42;;;;;;;1.30;1.03;;;;;;;18.62;39.31;99883.69;;;;-52
2020/02/11 08:02:42;;;;;;;0.95;0.92;;;;;;;18.63;39.30;99894.02;;;;-51
2020/02/11 08:05:42;;;;;;;1.13;1.03;;;;;;;18.64;39.29;99898.55;;;;-52
2020/02/11 08:08:42;;;;;;;1.03;0.90;;;;;;;18.64;39.24;99881.82;;;;-52
2020/02/11 08:11:42;;;;;;;0.90;0.90;;;;;;;18.64;39.33;99885.83;;;;-52
2020/02/11 08:14:42;;;;;;;0.76;0.76;;;;;;;18.64;39.21;99873.63;;;;-52
2020/02/11 08:17:42;;;;;;;1.55;1.10;;;;;;;18.64;39.29;99883.99;;;;-52
2020/02/11 08:20:42;;;;;;;1.10;1.00;;;;;;;18.64;39.23;99885.60;;;;-52
2020/02/11 08:23:42;;;;;;;1.29;0.90;;;;;;;18.64;39.27;99886.27;;;;-52
2020/02/11 08:26:42;;;;;;;1.11;1.01;;;;;;;18.64;39.27;99884.77;;;;-52
2020/02/11 08:30:10;;;;;;;0.97;0.97;;;;;;;18.64;39.27;99878.81;;;;-52
2020/02/11 08:32:48;;;;;;;0.89;0.88;;;;;;;18.64;39.26;99887.11;;;;-52
2020/02/11 08:36:33;;;;;;;1.19;1.08;;;;;;;18.65;39.28;99886.37;;;;-52
2020/02/11 08:40:06;;;;;;;1.28;1.01;;;;;;;18.65;39.24;99878.61;;;;-51
2020/02/11 08:43:21;;;;;;;1.10;1.00;;;;;;;18.64;39.22;99881.59;;;;-52
2020/02/11 08:50:52;;;;;;;2.53;1.12;;;;;;;18.68;39.96;99885.82;;;;-52
2020/02/11 08:54:06;;;;;;;1.19;1.09;;;;;;;18.69;40.13;99898.84;;;;-51
2020/02/11 08:59:49;;;;;;;1.07;1.00;;;;;;;18.75;40.27;99898.73;;;;-52
2020/02/11 09:02:54;;;;;;;2.57;1.10;;;;;;;18.79;40.33;99897.55;;;;-52
2020/02/11 09:05:50;;;;;;;1.16;1.06;;;;;;;18.84;40.37;99897.41;;;;-52
2020/02/11 09:11:53;;;;;;;1.99;1.07;;;;;;;18.93;40.19;99908.76;;;;-55
2020/02/11 09:14:54;;;;;;;1.09;0.99;;;;;;;18.96;40.13;99910.04;;;;-53
2020/02/11 09:18:01;;;;;;;1.89;1.00;;;;;;;19.01;40.40;99894.83;;;;-51
2020/02/11 09:21:04;;;;;;;2.47;1.21;;;;;;;19.02;39.63;99898.45;;;;-53
2020/02/11 09:23:49;;;;;;;2.49;1.37;;;;;;;19.05;39.88;99898.50;;;;-53
2020/02/11 09:26:53;;;;;;;4.95;1.13;;;;;;;19.07;39.43;99897.03;;;;-58
2020/02/11 09:29:48;;;;;;;1.39;1.03;;;;;;;19.11;39.21;99894.60;;;;-53
2020/02/11 09:36:29;;;;;;;2.20;1.20;;;;;;;19.21;39.67;99902.20;;;;-59
2020/02/11 09:38:51;;;;;;;2.01;1.20;;;;;;;19.24;39.99;99895.78;;;;-59
2020/02/11 09:42:03;;;;;;;1.05;0.96;;;;;;;19.28;40.07;99888.03;;;;-57
2020/02/11 09:45:00;;;;;;;2.11;0.99;;;;;;;19.31;40.02;99896.17;;;;-60
2020/02/11 09:47:53;;;;;;;1.90;1.10;;;;;;;19.36;40.32;99897.59;;;;-56
2020/02/11 09:50:51;;;;;;;1.75;1.11;;;;;;;19.39;39.93;99889.83;;;;-51
2020/02/11 09:59:52;;;;;;;1.20;1.07;;;;;;;19.53;40.18;99896.19;;;;-52
2020/02/11 10:12:59;;;;;;;1.89;1.22;;;;;;;19.65;40.29;99888.30;;;;-56
2020/02/11 10:16:00;;;;;;;1.44;1.09;;;;;;;19.67;40.43;99905.22;;;;-51
2020/02/11 10:20:03;;;;;;;1.14;1.04;;;;;;;19.68;40.67;99922.51;;;;-57
2020/02/11 10:22:59;;;;;;;5.31;1.14;;;;;;;19.70;40.47;99908.94;;;;-54
2020/02/11 10:26:03;;;;;;;2.24;1.02;;;;;;;19.70;40.42;99907.23;;;;-55
2020/02/11 10:28:48;;;;;;;2.34;1.25;;;;;;;19.70;40.63;99903.75;;;;-52
2020/02/11 10:36:58;;;;;;;2.41;1.18;;;;;;;19.73;40.40;99890.41;;;;-56
2020/02/11 10:42:50;;;;;;;2.50;1.17;;;;;;;19.71;39.44;99889.78;;;;-57
2020/02/11 10:52:12;;;;;;;1.70;1.10;;;;;;;19.66;39.15;99903.84;;;;-56
2020/02/11 10:54:59;;;;;;;5.33;1.42;;;;;;;19.59;38.34;99893.55;;;;-49
2020/02/11 11:03:02;;;;;;;2.04;1.30;;;;;;;19.58;38.54;99902.83;;;;-52
2020/02/11 11:05:51;;;;;;;3.74;1.49;;;;;;;19.59;38.25;99904.10;;;;-50
2020/02/11 11:08:54;;;;;;;4.50;1.35;;;;;;;19.57;38.24;99900.28;;;;-57
2020/02/11 11:11:51;;;;;;;4.47;1.37;;;;;;;19.61;38.12;99901.83;;;;-54
2020/02/11 11:21:08;;;;;;;2.17;1.36;;;;;;;19.61;38.39;99905.67;;;;-54
2020/02/11 11:29:05;;;;;;;2.30;1.35;;;;;;;19.62;38.44;99888.63;;;;-55
2020/02/11 11:31:54;;;;;;;2.26;1.15;;;;;;;19.63;38.48;99888.39;;;;-53
2020/02/11 11:34:49;;;;;;;1.62;1.20;;;;;;;19.63;38.43;99886.05;;;;-51
2020/02/11 11:43:52;;;;;;;1.95;1.10;;;;;;;19.63;38.43;99901.63;;;;-58
2020/02/11 11:46:51;;;;;;;3.70;1.15;;;;;;;19.64;38.43;99892.05;;;;-53
2020/02/11 11:49:51;;;;;;;1.94;1.18;;;;;;;19.64;38.50;99896.41;;;;-52
2020/02/11 11:52:56;;;;;;;3.22;1.31;;;;;;;19.65;38.46;99887.05;;;;-52
2020/02/11 11:55:52;;;;;;;1.44;1.10;;;;;;;19.65;38.43;99896.00;;;;-51
2020/02/11 12:01:50;;;;;;;1.89;1.20;;;;;;;19.68;38.37;99898.95;;;;-52
2020/02/11 12:04:57;;;;;;;1.21;1.08;;;;;;;19.69;38.40;99896.74;;;;-52
2020/02/11 12:10:52;;;;;;;1.33;1.09;;;;;;;19.71;38.76;99889.84;;;;-48
2020/02/11 12:14:06;;;;;;;1.78;1.33;;;;;;;19.71;38.35;99883.75;;;;-49
2020/02/11 12:17:01;;;;;;;1.57;1.10;;;;;;;19.72;38.42;99891.72;;;;-50
2020/02/11 12:24:55;;;;;;;1.94;1.20;;;;;;;19.72;38.43;99896.41;;;;-45
2020/02/11 12:32:06;;;;;;;3.21;1.30;;;;;;;19.75;38.90;99888.07;;;;-48
2020/02/11 12:35:12;;;;;;;2.29;1.18;;;;;;;19.76;39.14;99902.58;;;;-51
2020/02/11 12:37:57;;;;;;;2.02;1.17;;;;;;;19.78;39.35;99900.81;;;;-47
2020/02/11 12:43:55;;;;;;;1.60;1.15;;;;;;;19.81;39.47;99887.11;;;;-48
2020/02/11 12:46:58;;;;;;;2.04;1.29;;;;;;;19.81;39.62;99889.11;;;;-57
2020/02/11 12:49:59;;;;;;;2.27;1.24;;;;;;;19.82;40.05;99881.84;;;;-45
2020/02/11 12:52:52;;;;;;;3.09;1.23;;;;;;;19.83;39.92;99879.47;;;;-57
2020/02/11 13:01:51;;;;;;;3.47;1.37;;;;;;;19.89;39.91;99890.19;;;;-45
2020/02/11 13:07:59;;;;;;;4.90;1.43;;;;;;;19.91;39.81;99893.98;;;;-51
2020/02/11 13:10:52;;;;;;;3.14;1.31;;;;;;;19.91;39.84;99886.00;;;;-51
2020/02/11 13:18:59;;;;;;;2.47;1.30;;;;;;;19.94;39.79;99896.63;;;;-50
2020/02/11 13:25:10;;;;;;;4.33;1.55;;;;;;;19.95;39.79;99901.69;;;;-48
2020/02/11 13:27:58;;;;;;;2.81;1.33;;;;;;;19.96;39.89;99910.91;;;;-48
2020/02/11 13:34:26;;;;;;;1.84;1.22;;;;;;;19.98;39.80;99895.08;;;;-45
2020/02/11 13:37:37;;;;;;;4.05;1.30;;;;;;;19.97;39.69;99895.42;;;;-52
2020/02/11 13:41:22;;;;;;;2.60;1.34;;;;;;;20.00;39.68;99906.68;;;;-50
2020/02/11 13:46:55;;;;;;;1.59;1.09;;;;;;;20.00;39.61;99909.53;;;;-44
2020/02/11 13:49:55;;;;;;;2.13;1.23;;;;;;;20.02;39.78;99890.89;;;;-47
2020/02/11 13:52:52;;;;;;;2.89;1.20;;;;;;;20.02;39.65;99890.42;;;;-47
2020/02/11 13:55:50;;;;;;;3.75;1.15;;;;;;;20.02;39.65;99908.26;;;;-49
2020/02/11 13:59:22;;;;;;;1.48;1.19;;;;;;;20.03;39.55;99894.88;;;;-49
2020/02/11 14:11:50;;;;;;;2.29;1.27;;;;;;;20.08;39.52;99925.05;;;;-50
2020/02/11 14:14:51;;;;;;;2.12;1.14;;;;;;;20.07;39.35;99923.58;;;;-51
2020/02/11 14:17:58;;;;;;;1.39;1.10;;;;;;;20.07;39.22;99932.56;;;;-51
2020/02/11 14:20:50;;;;;;;2.00;1.17;;;;;;;20.08;39.27;99925.39;;;;-51
2020/02/11 14:24:33;;;;;;;1.95;1.24;;;;;;;20.09;39.30;99930.02;;;;-48
2020/02/11 14:30:58;;;;;;;1.89;1.00;;;;;;;20.12;39.47;99934.30;;;;-48
2020/02/11 14:34:00;;;;;;;2.53;1.32;;;;;;;20.11;39.56;99940.74;;;;-51
2020/02/11 14:36:49;;;;;;;1.83;1.20;;;;;;;20.12;39.17;99954.52;;;;-48
2020/02/11 14:40:07;;;;;;;2.46;1.18;;;;;;;20.10;38.98;99959.66;;;;-47
2020/02/11 14:46:11;;;;;;;1.74;1.15;;;;;;;20.10;39.28;99996.86;;;;-48
2020/02/11 14:49:42;;;;;;;1.61;1.24;;;;;;;20.10;39.43;100022.02;;;;-48
2020/02/11 14:53:02;;;;;;;2.17;1.02;;;;;;;20.10;39.27;100016.98;;;;-48
2020/02/11 14:56:09;;;;;;;1.89;1.20;;;;;;;20.11;39.42;100006.96;;;;-51
2020/02/11 15:02:57;;;;;;;1.51;1.20;;;;;;;20.13;39.56;99989.33;;;;-50
2020/02/11 15:12:03;;;;;;;1.29;1.07;;;;;;;20.12;39.41;99994.82;;;;-49
2020/02/11 15:18:53;;;;;;;2.56;1.14;;;;;;;20.19;40.01;100001.27;;;;-52
2020/02/11 15:24:51;;;;;;;5.07;1.16;;;;;;;20.14;38.75;99982.25;;;;-43
2020/02/11 15:28:06;;;;;;;3.35;1.33;;;;;;;20.14;38.81;99977.63;;;;-50
2020/02/11 15:30:58;;;;;;;4.31;1.27;;;;;;;20.14;38.89;99981.81;;;;-48
2020/02/11 15:37:07;;;;;;;2.87;1.13;;;;;;;20.16;38.91;99971.09;;;;-51
2020/02/11 15:53:05;;;;;;;4.01;1.20;;;;;;;20.12;38.71;99954.25;;;;-51
2020/02/11 15:55:54;;;;;;;2.25;1.25;;;;;;;20.12;38.69;99955.70;;;;-51
2020/02/11 15:58:54;;;;;;;2.09;1.19;;;;;;;20.11;38.69;99964.38;;;;-51
2020/02/11 16:01:52;;;;;;;2.35;1.20;;;;;;;20.11;38.70;99965.28;;;;-51
2020/02/11 16:04:52;;;;;;;2.37;1.12;;;;;;;20.10;38.68;99960.83;;;;-51
2020/02/11 16:07:49;;;;;;;1.95;1.33;;;;;;;20.10;38.64;99962.56;;;;-51
2020/02/11 16:10:55;;;;;;;1.26;1.03;;;;;;;20.09;38.63;99961.97;;;;-51
2020/02/11 16:14:35;;;;;;;2.17;1.04;;;;;;;20.10;38.61;99962.56;;;;-51
2020/02/11 16:17:59;;;;;;;1.29;1.11;;;;;;;20.09;38.64;99969.51;;;;-51
2020/02/11 16:24:02;;;;;;;1.50;1.12;;;;;;;20.07;38.61;99982.52;;;;-60
2020/02/11 16:27:08;;;;;;;2.18;1.18;;;;;;;20.06;38.61;99981.81;;;;-60
2020/02/11 16:29:52;;;;;;;1.60;1.11;;;;;;;20.06;38.67;99977.79;;;;-60
2020/02/11 16:36:27;;;;;;;1.65;1.20;;;;;;;20.04;38.63;99980.73;;;;-60
2020/02/11 16:39:09;;;;;;;1.43;1.16;;;;;;;20.04;38.56;99984.09;;;;-60
2020/02/11 16:41:51;;;;;;;2.31;1.21;;;;;;;20.03;38.65;99999.47;;;;-57
2020/02/11 16:45:00;;;;;;;1.43;1.00;;;;;;;20.04;38.97;99993.58;;;;-55
2020/02/11 16:47:55;;;;;;;1.49;1.14;;;;;;;20.05;39.12;100001.66;;;;-56
2020/02/11 16:51:32;;;;;;;1.87;1.06;;;;;;;20.07;39.16;99995.19;;;;-54
2020/02/11 16:54:52;;;;;;;2.39;1.20;;;;;;;20.08;39.19;100005.34;;;;-56
2020/02/11 17:02:54;;;;;;;1.22;1.12;;;;;;;20.11;39.20;100008.70;;;;-54
2020/02/11 17:05:54;;;;;;;3.21;1.21;;;;;;;20.11;39.24;100012.05;;;;-64
2020/02/11 17:11:54;;;;;;;1.45;1.08;;;;;;;20.12;39.44;100008.67;;;;-63
2020/02/11 17:14:51;;;;;;;5.69;1.06;;;;;;;20.12;39.47;100005.48;;;;-61
2020/02/11 17:17:49;;;;;;;1.51;1.17;;;;;;;20.12;39.29;100004.48;;;;-60
2020/02/11 17:24:03;;;;;;;1.35;1.05;;;;;;;20.14;38.99;100004.61;;;;-59
2020/02/11 17:26:48;;;;;;;1.57;1.07;;;;;;;20.14;38.91;100011.66;;;;-59
2020/02/11 17:30:26;;;;;;;3.09;1.18;;;;;;;20.14;38.88;100023.39;;;;-59
2020/02/11 17:33:47;;;;;;;1.55;1.19;;;;;;;20.13;38.81;100015.75;;;;-59
2020/02/11 17:37:12;;;;;;;1.39;1.01;;;;;;;20.11;38.77;100021.88;;;;-58
2020/02/11 17:39:51;;;;;;;0.86;0.85;;;;;;;20.12;38.76;100022.98;;;;-59
2020/02/11 17:43:12;;;;;;;2.07;0.99;;;;;;;20.12;38.87;100020.47;;;;-56
2020/02/11 17:45:57;;;;;;;6.19;1.21;;;;;;;20.13;38.66;100032.84;;;;-54
2020/02/11 17:51:53;;;;;;;5.13;1.19;;;;;;;20.15;39.12;100014.64;;;;-53
2020/02/11 17:58:24;;;;;;;3.71;1.11;;;;;;;20.19;39.25;100044.02;;;;-55
2020/02/11 18:01:01;;;;;;;2.63;1.15;;;;;;;20.20;39.16;100058.64;;;;-54
2020/02/11 18:04:09;;;;;;;2.57;1.13;;;;;;;20.21;39.18;100042.58;;;;-60
2020/02/11 18:07:27;;;;;;;1.33;1.10;;;;;;;20.21;39.12;100062.37;;;;-55
2020/02/11 18:13:52;;;;;;;1.89;1.36;;;;;;;20.22;39.25;100122.43;;;;-53
2020/02/11 18:17:32;;;;;;;1.94;1.15;;;;;;;20.21;39.21;100157.54;;;;-55
2020/02/11 18:21:01;;;;;;;1.67;1.13;;;;;;;20.23;39.21;100121.63;;;;-54
2020/02/11 18:23:48;;;;;;;3.16;1.00;;;;;;;20.24;39.45;100106.70;;;;-53
2020/02/11 18:30:03;;;;;;;4.39;1.29;;;;;;;20.24;38.74;100140.38;;;;-57
2020/02/11 18:32:55;;;;;;;4.38;1.27;;;;;;;20.23;38.90;100147.95;;;;-53
2020/02/11 18:35:52;;;;;;;2.03;1.33;;;;;;;20.23;39.09;100181.09;;;;-54
2020/02/11 18:46:53;;;;;;;2.87;1.27;;;;;;;20.22;39.13;100189.91;;;;-58
2020/02/11 18:53:01;;;;;;;1.71;1.21;;;;;;;20.23;38.90;100167.80;;;;-58
2020/02/11 18:58:51;;;;;;;1.41;1.21;;;;;;;20.21;38.76;100165.15;;;;-58
2020/02/11 19:01:51;;;;;;;2.52;1.26;;;;;;;20.19;38.74;100145.06;;;;-58
2020/02/11 19:04:59;;;;;;;2.05;1.16;;;;;;;20.19;38.69;100154.17;;;;-58
2020/02/11 19:08:02;;;;;;;1.76;1.20;;;;;;;20.19;38.64;100159.55;;;;-58
2020/02/11 19:11:24;;;;;;;1.20;0.94;;;;;;;20.18;38.63;100157.77;;;;-58
2020/02/11 19:32:00;;;;;;;1.49;1.28;;;;;;;20.11;36.96;100158.41;;;;-55
2020/02/11 19:41:54;;;;;;;2.04;1.30;;;;;;;20.04;36.66;100158.66;;;;-56
2020/02/11 19:45:04;;;;;;;1.78;1.39;;;;;;;20.03;36.69;100161.80;;;;-55
2020/02/11 19:55:57;;;;;;;3.04;1.41;;;;;;;20.04;36.73;100185.13;;;;-52
2020/02/11 19:59:33;;;;;;;3.55;1.50;;;;;;;20.04;37.16;100184.00;;;;-52
2020/02/11 20:06:55;;;;;;;2.95;1.52;;;;;;;20.13;37.55;100191.11;;;;-54
2020/02/11 20:10:11;;;;;;;3.21;1.30;;;;;;;20.16;37.96;100202.52;;;;-53
2020/02/11 20:13:08;;;;;;;2.15;1.29;;;;;;;20.16;37.76;100191.89;;;;-52
2020/02/11 20:15:50;;;;;;;2.95;1.52;;;;;;;20.17;37.77;100204.41;;;;-51
2020/02/11 20:19:11;;;;;;;2.03;1.20;;;;;;;20.17;37.84;100219.33;;;;-52
2020/02/11 20:21:56;;;;;;;1.37;1.24;;;;;;;20.16;37.51;100222.88;;;;-52
2020/02/11 20:28:52;;;;;;;1.63;1.18;;;;;;;20.15;37.62;100256.91;;;;-52
2020/02/11 20:31:55;;;;;;;2.43;1.42;;;;;;;20.15;37.91;100271.23;;;;-52
2020/02/11 20:35:05;;;;;;;1.99;1.35;;;;;;;20.14;37.93;100274.64;;;;-55
2020/02/11 20:41:58;;;;;;;2.05;1.25;;;;;;;20.12;37.87;100300.22;;;;-53
2020/02/11 20:45:02;;;;;;;2.15;1.29;;;;;;;20.12;38.00;100304.07;;;;-55
2020/02/11 20:47:54;;;;;;;1.52;1.30;;;;;;;20.11;37.91;100312.92;;;;-54
2020/02/11 20:51:05;;;;;;;1.88;1.26;;;;;;;20.11;37.86;100312.08;;;;-51
2020/02/11 20:54:04;;;;;;;1.44;1.10;;;;;;;20.11;37.87;100310.74;;;;-51
2020/02/11 20:57:26;;;;;;;2.96;1.35;;;;;;;20.10;37.82;100323.44;;;;-51
2020/02/11 21:00:07;;;;;;;4.54;1.35;;;;;;;20.09;37.92;100330.28;;;;-51
2020/02/11 21:05:56;;;;;;;2.51;1.20;;;;;;;20.07;37.85;100324.26;;;;-51
2020/02/11 21:08:54;;;;;;;1.86;1.21;;;;;;;20.05;37.74;100327.94;;;;-51
2020/02/11 21:16:08;;;;;;;1.59;1.22;;;;;;;20.02;37.78;100320.17;;;;-50
2020/02/11 21:19:07;;;;;;;1.50;1.30;;;;;;;20.01;37.82;100319.49;;;;-54
2020/02/11 21:21:57;;;;;;;2.45;1.17;;;;;;;19.99;37.84;100319.58;;;;-53
2020/02/11 21:30:08;;;;;;;1.84;1.17;;;;;;;19.95;37.84;100335.04;;;;-51
2020/02/11 21:36:06;;;;;;;1.49;1.24;;;;;;;19.92;37.76;100351.78;;;;-50
2020/02/11 21:39:42;;;;;;;1.66;1.05;;;;;;;19.91;37.76;100357.17;;;;-54
2020/02/11 21:43:30;;;;;;;1.58;1.19;;;;;;;19.88;37.83;100366.30;;;;-53
2020/02/11 21:50:10;;;;;;;1.79;1.23;;;;;;;19.83;37.84;100372.86;;;;-53